sensor_id;sensor_type;location;lat;lon;timestamp;temperature;humidity
3842;DHT22;1936;47.074;15.336;2024-02-21T00:00:56;0.30;99.90
3842;DHT22;1936;47.074;15.336;2024-02-21T00:02:59;0.30;99.90
3842;DHT22;1936;47.074;15.336;2024-02-21T00:05:05;0.50;99.90
3842;DHT22;1936;47.074;15.336;2024-02-21T00:07:08;0.40;99.90
3842;DHT22;1936;47.074;15.336;2024-02-21T00:09:12;0.40;99.90
3842;DHT22;1936;47.074;15.336;2024-02-21T00:11:14;0.40;99.90
3842;DHT22;1936;47.074;15.336;2024-02-21T00:13:18;0.30;99.90
3842;DHT22;1936;47.074;15.336;2024-02-21T00:15:21;0.30;99.90
3842;DHT22;1936;47.074;15.336;2024-02-21T00:17:25;0.20;99.90
3842;DHT22;1936;47.074;15.336;2024-02-21T00:19:28;0.20;99.90
3842;DHT22;1936;47.074;15.336;2024-02-21T00:21:32;0.20;99.90
3842;DHT22;1936;47.074;15.336;2024-02-21T00:23:35;0.20;99.90
3842;DHT22;1936;47.074;15.336;2024-02-21T00:25:38;0.30;99.90
3842;DHT22;1936;47.074;15.336;2024-02-21T00:27:41;0.30;99.90
3842;DHT22;1936;47.074;15.336;2024-02-21T00:29:45;0.30;99.90
3842;DHT22;1936;47.074;15.336;2024-02-21T00:31:49;0.40;99.90
3842;DHT22;1936;47.074;15.336;2024-02-21T00:33:53;0.40;99.90
3842;DHT22;1936;47.074;15.336;2024-02-21T00:35:57;0.40;99.90
3842;DHT22;1936;47.074;15.336;2024-02-21T00:38:00;0.50;99.90
3842;DHT22;1936;47.074;15.336;2024-02-21T00:40:04;0.50;99.90
3842;DHT22;1936;47.074;15.336;2024-02-21T00:42:07;0.60;99.90
3842;DHT22;1936;47.074;15.336;2024-02-21T00:44:11;0.60;99.90
3842;DHT22;1936;47.074;15.336;2024-02-21T00:46:14;0.60;99.90
3842;DHT22;1936;47.074;15.336;2024-02-21T00:48:19;0.70;99.90
3842;DHT22;1936;47.074;15.336;2024-02-21T00:50:23;0.70;99.90
3842;DHT22;1936;47.074;15.336;2024-02-21T00:52:26;0.80;99.90
3842;DHT22;1936;47.074;15.336;2024-02-21T00:54:30;0.80;99.90
3842;DHT22;1936;47.074;15.336;2024-02-21T00:56:48;0.90;99.90
3842;DHT22;1936;47.074;15.336;2024-02-21T00:58:52;0.90;99.90
3842;DHT22;1936;47.074;15.336;2024-02-21T01:00:56;0.90;99.90
3842;DHT22;1936;47.074;15.336;2024-02-21T01:02:59;1.00;99.90
3842;DHT22;1936;47.074;15.336;2024-02-21T01:05:03;1.00;99.90
3842;DHT22;1936;47.074;15.336;2024-02-21T01:07:07;1.10;99.90
3842;DHT22;1936;47.074;15.336;2024-02-21T01:09:10;1.10;99.90
3842;DHT22;1936;47.074;15.336;2024-02-21T01:11:14;1.10;99.90
3842;DHT22;1936;47.074;15.336;2024-02-21T01:13:18;1.30;99.90
3842;DHT22;1936;47.074;15.336;2024-02-21T01:15:22;1.40;99.90
3842;DHT22;1936;47.074;15.336;2024-02-21T01:17:26;1.40;99.90
3842;DHT22;1936;47.074;15.336;2024-02-21T01:19:29;1.50;99.90
3842;DHT22;1936;47.074;15.336;2024-02-21T01:21:34;1.50;99.90
3842;DHT22;1936;47.074;15.336;2024-02-21T01:23:38;1.60;99.90
3842;DHT22;1936;47.074;15.336;2024-02-21T01:25:41;1.60;99.90
3842;DHT22;1936;47.074;15.336;2024-02-21T01:27:44;1.70;99.90
3842;DHT22;1936;47.074;15.336;2024-02-21T01:29:48;1.80;99.90
3842;DHT22;1936;47.074;15.336;2024-02-21T01:31:51;1.80;99.90
3842;DHT22;1936;47.074;15.336;2024-02-21T01:33:55;1.80;99.90
3842;DHT22;1936;47.074;15.336;2024-02-21T01:35:58;1.70;99.90
3842;DHT22;1936;47.074;15.336;2024-02-21T01:38:03;1.80;99.90
3842;DHT22;1936;47.074;15.336;2024-02-21T01:40:08;1.90;99.90
3842;DHT22;1936;47.074;15.336;2024-02-21T01:42:12;1.90;99.90
3842;DHT22;1936;47.074;15.336;2024-02-21T01:44:15;1.90;99.90
3842;DHT22;1936;47.074;15.336;2024-02-21T01:46:19;1.90;99.90
3842;DHT22;1936;47.074;15.336;2024-02-21T01:48:23;1.90;99.90
3842;DHT22;1936;47.074;15.336;2024-02-21T01:50:27;1.90;99.90
3842;DHT22;1936;47.074;15.336;2024-02-21T01:52:33;2.00;99.90
3842;DHT22;1936;47.074;15.336;2024-02-21T01:54:39;2.00;99.90
3842;DHT22;1936;47.074;15.336;2024-02-21T01:56:43;2.00;99.90
3842;DHT22;1936;47.074;15.336;2024-02-21T01:58:48;2.00;99.90
3842;DHT22;1936;47.074;15.336;2024-02-21T02:00:51;2.10;99.90
3842;DHT22;1936;47.074;15.336;2024-02-21T02:02:55;2.10;99.90
3842;DHT22;1936;47.074;15.336;2024-02-21T02:04:59;2.10;99.90
3842;DHT22;1936;47.074;15.336;2024-02-21T02:07:06;2.20;99.90
3842;DHT22;1936;47.074;15.336;2024-02-21T02:09:10;2.20;99.90
3842;DHT22;1936;47.074;15.336;2024-02-21T02:11:15;2.20;99.90
3842;DHT22;1936;47.074;15.336;2024-02-21T02:13:18;2.30;99.90
3842;DHT22;1936;47.074;15.336;2024-02-21T02:15:22;2.30;99.90
3842;DHT22;1936;47.074;15.336;2024-02-21T02:17:26;2.30;99.90
3842;DHT22;1936;47.074;15.336;2024-02-21T02:19:29;2.30;99.90
3842;DHT22;1936;47.074;15.336;2024-02-21T02:21:40;2.40;99.90
3842;DHT22;1936;47.074;15.336;2024-02-21T02:23:47;2.40;99.90
3842;DHT22;1936;47.074;15.336;2024-02-21T02:25:50;2.30;99.90
3842;DHT22;1936;47.074;15.336;2024-02-21T02:27:55;2.30;99.90
3842;DHT22;1936;47.074;15.336;2024-02-21T02:29:58;2.30;99.90
3842;DHT22;1936;47.074;15.336;2024-02-21T02:32:02;2.30;99.90
3842;DHT22;1936;47.074;15.336;2024-02-21T02:34:05;2.40;99.90
3842;DHT22;1936;47.074;15.336;2024-02-21T02:36:09;2.40;99.90
3842;DHT22;1936;47.074;15.336;2024-02-21T02:38:11;2.40;99.90
3842;DHT22;1936;47.074;15.336;2024-02-21T02:40:17;2.40;99.90
3842;DHT22;1936;47.074;15.336;2024-02-21T02:42:20;2.40;99.90
3842;DHT22;1936;47.074;15.336;2024-02-21T02:44:23;2.40;99.90
3842;DHT22;1936;47.074;15.336;2024-02-21T02:46:27;2.50;99.90
3842;DHT22;1936;47.074;15.336;2024-02-21T02:48:30;2.50;99.90
3842;DHT22;1936;47.074;15.336;2024-02-21T02:50:34;2.50;99.90
3842;DHT22;1936;47.074;15.336;2024-02-21T02:52:36;2.50;99.90
3842;DHT22;1936;47.074;15.336;2024-02-21T02:54:40;2.50;99.90
3842;DHT22;1936;47.074;15.336;2024-02-21T02:56:45;2.50;99.90
3842;DHT22;1936;47.074;15.336;2024-02-21T02:58:48;2.50;99.90
3842;DHT22;1936;47.074;15.336;2024-02-21T03:00:52;2.50;99.90
3842;DHT22;1936;47.074;15.336;2024-02-21T03:02:55;2.50;99.90
3842;DHT22;1936;47.074;15.336;2024-02-21T03:04:58;2.50;99.90
3842;DHT22;1936;47.074;15.336;2024-02-21T03:07:01;2.50;99.90
3842;DHT22;1936;47.074;15.336;2024-02-21T03:09:04;2.50;99.90
3842;DHT22;1936;47.074;15.336;2024-02-21T03:11:10;2.50;99.90
3842;DHT22;1936;47.074;15.336;2024-02-21T03:13:16;2.50;99.90
3842;DHT22;1936;47.074;15.336;2024-02-21T03:15:19;2.50;99.90
3842;DHT22;1936;47.074;15.336;2024-02-21T03:17:23;2.40;99.90
3842;DHT22;1936;47.074;15.336;2024-02-21T03:19:26;2.40;99.90
3842;DHT22;1936;47.074;15.336;2024-02-21T03:21:30;2.40;99.90
3842;DHT22;1936;47.074;15.336;2024-02-21T03:23:33;2.50;99.90
3842;DHT22;1936;47.074;15.336;2024-02-21T03:25:37;2.40;99.90
3842;DHT22;1936;47.074;15.336;2024-02-21T03:27:41;2.50;99.90
3842;DHT22;1936;47.074;15.336;2024-02-21T03:29:46;2.40;99.90
3842;DHT22;1936;47.074;15.336;2024-02-21T03:31:49;2.50;99.90
3842;DHT22;1936;47.074;15.336;2024-02-21T03:33:52;2.50;99.90
3842;DHT22;1936;47.074;15.336;2024-02-21T03:35:56;2.50;99.90
3842;DHT22;1936;47.074;15.336;2024-02-21T03:37:59;2.50;99.90
3842;DHT22;1936;47.074;15.336;2024-02-21T03:40:07;2.40;99.90
3842;DHT22;1936;47.074;15.336;2024-02-21T03:42:11;2.50;99.90
3842;DHT22;1936;47.074;15.336;2024-02-21T03:44:13;2.40;99.90
3842;DHT22;1936;47.074;15.336;2024-02-21T03:46:18;2.40;99.90
3842;DHT22;1936;47.074;15.336;2024-02-21T03:48:21;2.50;99.90
3842;DHT22;1936;47.074;15.336;2024-02-21T03:50:25;2.50;99.90
3842;DHT22;1936;47.074;15.336;2024-02-21T03:52:29;2.50;99.90
3842;DHT22;1936;47.074;15.336;2024-02-21T03:54:33;2.40;99.90
3842;DHT22;1936;47.074;15.336;2024-02-21T03:56:37;2.40;99.90
3842;DHT22;1936;47.074;15.336;2024-02-21T03:58:41;2.30;99.90
3842;DHT22;1936;47.074;15.336;2024-02-21T04:00:45;2.40;99.90
3842;DHT22;1936;47.074;15.336;2024-02-21T04:02:50;2.30;99.90
3842;DHT22;1936;47.074;15.336;2024-02-21T04:04:54;2.20;99.90
3842;DHT22;1936;47.074;15.336;2024-02-21T04:06:56;2.20;99.90
3842;DHT22;1936;47.074;15.336;2024-02-21T04:09:00;2.10;99.90
3842;DHT22;1936;47.074;15.336;2024-02-21T04:11:03;2.10;99.90
3842;DHT22;1936;47.074;15.336;2024-02-21T04:13:07;2.10;99.90
3842;DHT22;1936;47.074;15.336;2024-02-21T04:15:10;2.10;99.90
3842;DHT22;1936;47.074;15.336;2024-02-21T04:17:13;2.10;99.90
3842;DHT22;1936;47.074;15.336;2024-02-21T04:19:18;2.00;99.90
3842;DHT22;1936;47.074;15.336;2024-02-21T04:21:21;2.10;99.90
3842;DHT22;1936;47.074;15.336;2024-02-21T04:23:25;2.10;99.90
3842;DHT22;1936;47.074;15.336;2024-02-21T04:25:28;2.00;99.90
3842;DHT22;1936;47.074;15.336;2024-02-21T04:27:32;2.00;99.90
3842;DHT22;1936;47.074;15.336;2024-02-21T04:29:36;2.10;99.90
3842;DHT22;1936;47.074;15.336;2024-02-21T04:31:39;2.20;99.90
3842;DHT22;1936;47.074;15.336;2024-02-21T04:33:43;2.10;99.90
3842;DHT22;1936;47.074;15.336;2024-02-21T04:35:48;2.10;99.90
3842;DHT22;1936;47.074;15.336;2024-02-21T04:37:51;2.00;99.90
3842;DHT22;1936;47.074;15.336;2024-02-21T04:39:55;2.00;99.90
3842;DHT22;1936;47.074;15.336;2024-02-21T04:41:59;2.00;99.90
3842;DHT22;1936;47.074;15.336;2024-02-21T04:44:02;2.00;99.90
3842;DHT22;1936;47.074;15.336;2024-02-21T04:46:07;2.10;99.90
3842;DHT22;1936;47.074;15.336;2024-02-21T04:48:10;2.00;99.90
3842;DHT22;1936;47.074;15.336;2024-02-21T04:50:14;2.00;99.90
3842;DHT22;1936;47.074;15.336;2024-02-21T04:52:19;2.00;99.90
3842;DHT22;1936;47.074;15.336;2024-02-21T04:54:22;2.00;99.90
3842;DHT22;1936;47.074;15.336;2024-02-21T04:56:26;2.00;99.90
3842;DHT22;1936;47.074;15.336;2024-02-21T04:58:29;1.90;99.90
3842;DHT22;1936;47.074;15.336;2024-02-21T05:00:33;1.90;99.90
3842;DHT22;1936;47.074;15.336;2024-02-21T05:02:37;1.90;99.90
3842;DHT22;1936;47.074;15.336;2024-02-21T05:04:41;1.80;99.90
3842;DHT22;1936;47.074;15.336;2024-02-21T05:06:44;1.80;99.90
3842;DHT22;1936;47.074;15.336;2024-02-21T05:08:49;1.70;99.90
3842;DHT22;1936;47.074;15.336;2024-02-21T05:10:52;1.50;99.90
3842;DHT22;1936;47.074;15.336;2024-02-21T05:12:57;1.50;99.90
3842;DHT22;1936;47.074;15.336;2024-02-21T05:15:01;1.50;99.90
3842;DHT22;1936;47.074;15.336;2024-02-21T05:17:05;1.50;99.90
3842;DHT22;1936;47.074;15.336;2024-02-21T05:19:08;1.50;99.90
3842;DHT22;1936;47.074;15.336;2024-02-21T05:21:12;1.50;99.90
3842;DHT22;1936;47.074;15.336;2024-02-21T05:23:15;1.40;99.90
3842;DHT22;1936;47.074;15.336;2024-02-21T05:25:19;1.40;99.90
3842;DHT22;1936;47.074;15.336;2024-02-21T05:27:22;1.40;99.90
3842;DHT22;1936;47.074;15.336;2024-02-21T05:29:25;1.30;99.90
3842;DHT22;1936;47.074;15.336;2024-02-21T05:31:54;1.30;99.90
3842;DHT22;1936;47.074;15.336;2024-02-21T05:33:58;1.20;99.90
3842;DHT22;1936;47.074;15.336;2024-02-21T05:36:05;1.20;99.90
3842;DHT22;1936;47.074;15.336;2024-02-21T05:38:09;1.10;99.90
3842;DHT22;1936;47.074;15.336;2024-02-21T05:40:14;1.10;99.90
3842;DHT22;1936;47.074;15.336;2024-02-21T05:42:19;1.10;99.90
3842;DHT22;1936;47.074;15.336;2024-02-21T05:44:22;1.10;99.90
3842;DHT22;1936;47.074;15.336;2024-02-21T05:46:25;1.10;99.90
3842;DHT22;1936;47.074;15.336;2024-02-21T05:48:29;1.00;99.90
3842;DHT22;1936;47.074;15.336;2024-02-21T05:50:36;0.90;99.90
3842;DHT22;1936;47.074;15.336;2024-02-21T05:52:40;0.90;99.90
3842;DHT22;1936;47.074;15.336;2024-02-21T05:54:43;0.90;99.90
3842;DHT22;1936;47.074;15.336;2024-02-21T05:56:49;0.90;99.90
3842;DHT22;1936;47.074;15.336;2024-02-21T05:58:55;0.90;99.90
3842;DHT22;1936;47.074;15.336;2024-02-21T06:00:59;0.90;99.90
3842;DHT22;1936;47.074;15.336;2024-02-21T06:03:04;0.70;99.90
3842;DHT22;1936;47.074;15.336;2024-02-21T06:05:07;0.70;99.90
3842;DHT22;1936;47.074;15.336;2024-02-21T06:07:11;0.60;99.90
3842;DHT22;1936;47.074;15.336;2024-02-21T06:09:15;0.70;99.90
3842;DHT22;1936;47.074;15.336;2024-02-21T06:11:19;0.80;99.90
3842;DHT22;1936;47.074;15.336;2024-02-21T06:13:23;0.70;99.90
3842;DHT22;1936;47.074;15.336;2024-02-21T06:15:29;0.60;99.90
3842;DHT22;1936;47.074;15.336;2024-02-21T06:17:32;0.60;99.90
3842;DHT22;1936;47.074;15.336;2024-02-21T06:19:36;0.70;99.90
3842;DHT22;1936;47.074;15.336;2024-02-21T06:21:39;0.70;99.90
3842;DHT22;1936;47.074;15.336;2024-02-21T06:23:43;0.70;99.90
3842;DHT22;1936;47.074;15.336;2024-02-21T06:25:46;0.70;99.90
3842;DHT22;1936;47.074;15.336;2024-02-21T06:27:50;0.80;99.90
3842;DHT22;1936;47.074;15.336;2024-02-21T06:29:53;0.90;99.90
3842;DHT22;1936;47.074;15.336;2024-02-21T06:31:58;1.00;99.90
3842;DHT22;1936;47.074;15.336;2024-02-21T06:34:02;1.10;99.90
3842;DHT22;1936;47.074;15.336;2024-02-21T06:36:06;1.10;99.90
3842;DHT22;1936;47.074;15.336;2024-02-21T06:38:09;1.30;99.90
3842;DHT22;1936;47.074;15.336;2024-02-21T06:40:12;1.50;99.90
3842;DHT22;1936;47.074;15.336;2024-02-21T06:42:16;1.60;99.90
3842;DHT22;1936;47.074;15.336;2024-02-21T06:44:20;1.70;99.90
3842;DHT22;1936;47.074;15.336;2024-02-21T06:46:24;1.70;99.90
3842;DHT22;1936;47.074;15.336;2024-02-21T06:48:29;1.90;99.90
3842;DHT22;1936;47.074;15.336;2024-02-21T06:50:33;1.90;99.90
3842;DHT22;1936;47.074;15.336;2024-02-21T06:52:37;2.10;99.90
3842;DHT22;1936;47.074;15.336;2024-02-21T06:54:41;2.20;99.90
3842;DHT22;1936;47.074;15.336;2024-02-21T06:56:44;2.30;99.90
3842;DHT22;1936;47.074;15.336;2024-02-21T06:58:47;2.40;99.90
3842;DHT22;1936;47.074;15.336;2024-02-21T07:00:51;2.50;99.90
3842;DHT22;1936;47.074;15.336;2024-02-21T07:02:55;2.70;99.90
3842;DHT22;1936;47.074;15.336;2024-02-21T07:05:00;2.90;99.90
3842;DHT22;1936;47.074;15.336;2024-02-21T07:07:03;3.00;99.90
3842;DHT22;1936;47.074;15.336;2024-02-21T07:09:07;3.10;99.90
3842;DHT22;1936;47.074;15.336;2024-02-21T07:11:11;3.20;99.90
3842;DHT22;1936;47.074;15.336;2024-02-21T07:13:15;3.30;99.90
3842;DHT22;1936;47.074;15.336;2024-02-21T07:15:20;3.20;99.90
3842;DHT22;1936;47.074;15.336;2024-02-21T07:17:23;3.20;99.90
3842;DHT22;1936;47.074;15.336;2024-02-21T07:19:27;3.30;99.90
3842;DHT22;1936;47.074;15.336;2024-02-21T07:21:32;3.30;99.90
3842;DHT22;1936;47.074;15.336;2024-02-21T07:23:36;3.20;99.90
3842;DHT22;1936;47.074;15.336;2024-02-21T07:25:38;3.30;99.90
3842;DHT22;1936;47.074;15.336;2024-02-21T07:27:43;3.30;99.90
3842;DHT22;1936;47.074;15.336;2024-02-21T07:29:47;3.40;99.90
3842;DHT22;1936;47.074;15.336;2024-02-21T07:31:51;3.50;99.90
3842;DHT22;1936;47.074;15.336;2024-02-21T07:33:55;3.60;99.90
3842;DHT22;1936;47.074;15.336;2024-02-21T07:35:58;3.80;99.90
3842;DHT22;1936;47.074;15.336;2024-02-21T07:38:03;4.00;99.90
3842;DHT22;1936;47.074;15.336;2024-02-21T07:40:12;4.30;99.90
3842;DHT22;1936;47.074;15.336;2024-02-21T07:42:16;4.60;99.90
3842;DHT22;1936;47.074;15.336;2024-02-21T07:44:20;5.00;99.90
3842;DHT22;1936;47.074;15.336;2024-02-21T07:46:23;5.20;99.90
3842;DHT22;1936;47.074;15.336;2024-02-21T07:48:26;5.70;99.90
3842;DHT22;1936;47.074;15.336;2024-02-21T07:50:33;6.10;99.90
3842;DHT22;1936;47.074;15.336;2024-02-21T07:52:37;6.70;99.90
3842;DHT22;1936;47.074;15.336;2024-02-21T07:54:42;7.00;99.90
3842;DHT22;1936;47.074;15.336;2024-02-21T07:56:45;6.80;99.90
3842;DHT22;1936;47.074;15.336;2024-02-21T07:58:49;6.80;99.90
3842;DHT22;1936;47.074;15.336;2024-02-21T08:00:53;6.80;99.90
3842;DHT22;1936;47.074;15.336;2024-02-21T08:02:55;7.60;99.90
3842;DHT22;1936;47.074;15.336;2024-02-21T08:09:07;7.90;99.80
3842;DHT22;1936;47.074;15.336;2024-02-21T08:11:12;8.20;99.90
3842;DHT22;1936;47.074;15.336;2024-02-21T08:17:26;8.40;94.20
3842;DHT22;1936;47.074;15.336;2024-02-21T08:19:29;8.90;97.50
3842;DHT22;1936;47.074;15.336;2024-02-21T08:21:33;8.70;92.50
3842;DHT22;1936;47.074;15.336;2024-02-21T08:23:36;8.80;95.30
3842;DHT22;1936;47.074;15.336;2024-02-21T08:25:40;10.20;91.20
3842;DHT22;1936;47.074;15.336;2024-02-21T08:31:53;15.50;52.60
3842;DHT22;1936;47.074;15.336;2024-02-21T08:33:57;16.50;49.50
3842;DHT22;1936;47.074;15.336;2024-02-21T08:36:05;17.80;49.50
3842;DHT22;1936;47.074;15.336;2024-02-21T08:40:14;20.50;38.70
3842;DHT22;1936;47.074;15.336;2024-02-21T08:42:19;19.70;38.40
3842;DHT22;1936;47.074;15.336;2024-02-21T08:44:25;19.50;37.00
3842;DHT22;1936;47.074;15.336;2024-02-21T08:46:29;17.60;39.80
3842;DHT22;1936;47.074;15.336;2024-02-21T08:48:33;16.40;44.60
3842;DHT22;1936;47.074;15.336;2024-02-21T08:50:36;15.90;44.10
3842;DHT22;1936;47.074;15.336;2024-02-21T08:52:40;16.10;44.30
3842;DHT22;1936;47.074;15.336;2024-02-21T08:54:44;16.90;43.90
3842;DHT22;1936;47.074;15.336;2024-02-21T08:56:48;17.40;39.50
3842;DHT22;1936;47.074;15.336;2024-02-21T08:58:51;16.90;41.80
3842;DHT22;1936;47.074;15.336;2024-02-21T09:00:56;16.50;43.20
3842;DHT22;1936;47.074;15.336;2024-02-21T09:03:00;16.60;44.60
3842;DHT22;1936;47.074;15.336;2024-02-21T09:05:04;15.90;44.80
3842;DHT22;1936;47.074;15.336;2024-02-21T09:07:08;16.00;44.10
3842;DHT22;1936;47.074;15.336;2024-02-21T09:09:11;15.90;49.20
3842;DHT22;1936;47.074;15.336;2024-02-21T09:11:15;16.10;46.40
3842;DHT22;1936;47.074;15.336;2024-02-21T09:13:19;17.20;42.20
3842;DHT22;1936;47.074;15.336;2024-02-21T09:15:22;17.20;41.20
3842;DHT22;1936;47.074;15.336;2024-02-21T09:17:28;17.80;41.60
3842;DHT22;1936;47.074;15.336;2024-02-21T09:19:33;16.50;43.90
3842;DHT22;1936;47.074;15.336;2024-02-21T09:21:37;15.40;46.30
3842;DHT22;1936;47.074;15.336;2024-02-21T09:23:40;15.20;50.10
3842;DHT22;1936;47.074;15.336;2024-02-21T09:25:44;14.10;51.90
3842;DHT22;1936;47.074;15.336;2024-02-21T09:27:48;13.20;53.30
3842;DHT22;1936;47.074;15.336;2024-02-21T09:29:53;12.90;55.80
3842;DHT22;1936;47.074;15.336;2024-02-21T09:31:56;12.50;56.20
3842;DHT22;1936;47.074;15.336;2024-02-21T09:34:01;12.30;55.90
3842;DHT22;1936;47.074;15.336;2024-02-21T09:36:06;12.30;55.80
3842;DHT22;1936;47.074;15.336;2024-02-21T09:38:09;12.20;54.80
3842;DHT22;1936;47.074;15.336;2024-02-21T09:40:15;12.10;53.40
3842;DHT22;1936;47.074;15.336;2024-02-21T09:42:21;11.90;51.80
3842;DHT22;1936;47.074;15.336;2024-02-21T09:44:25;12.50;56.10
3842;DHT22;1936;47.074;15.336;2024-02-21T09:46:42;12.50;54.60
3842;DHT22;1936;47.074;15.336;2024-02-21T09:48:58;13.40;55.10
3842;DHT22;1936;47.074;15.336;2024-02-21T09:51:09;13.90;49.90
3842;DHT22;1936;47.074;15.336;2024-02-21T09:53:14;14.30;50.60
3842;DHT22;1936;47.074;15.336;2024-02-21T09:55:18;15.40;50.70
3842;DHT22;1936;47.074;15.336;2024-02-21T09:59:28;16.30;44.60
3842;DHT22;1936;47.074;15.336;2024-02-21T10:01:31;16.10;51.00
3842;DHT22;1936;47.074;15.336;2024-02-21T10:03:36;15.60;49.90
3842;DHT22;1936;47.074;15.336;2024-02-21T10:05:47;16.80;48.30
3842;DHT22;1936;47.074;15.336;2024-02-21T10:07:54;17.50;46.20
3842;DHT22;1936;47.074;15.336;2024-02-21T10:10:02;17.80;42.50
3842;DHT22;1936;47.074;15.336;2024-02-21T10:12:09;19.00;41.60
3842;DHT22;1936;47.074;15.336;2024-02-21T10:14:13;20.80;35.10
3842;DHT22;1936;47.074;15.336;2024-02-21T10:16:17;22.60;41.40
3842;DHT22;1936;47.074;15.336;2024-02-21T10:18:21;22.40;36.10
3842;DHT22;1936;47.074;15.336;2024-02-21T10:20:23;21.20;31.90
3842;DHT22;1936;47.074;15.336;2024-02-21T10:22:27;20.90;34.10
3842;DHT22;1936;47.074;15.336;2024-02-21T10:24:34;21.00;31.50
3842;DHT22;1936;47.074;15.336;2024-02-21T10:26:40;22.50;33.90
3842;DHT22;1936;47.074;15.336;2024-02-21T10:28:43;22.70;29.80
3842;DHT22;1936;47.074;15.336;2024-02-21T10:30:52;21.50;29.30
3842;DHT22;1936;47.074;15.336;2024-02-21T10:32:56;21.10;31.70
3842;DHT22;1936;47.074;15.336;2024-02-21T10:35:04;20.50;32.00
3842;DHT22;1936;47.074;15.336;2024-02-21T10:37:09;20.30;33.30
3842;DHT22;1936;47.074;15.336;2024-02-21T10:39:13;20.20;30.70
3842;DHT22;1936;47.074;15.336;2024-02-21T10:41:20;21.50;30.90
3842;DHT22;1936;47.074;15.336;2024-02-21T10:43:24;22.60;30.70
3842;DHT22;1936;47.074;15.336;2024-02-21T10:45:30;23.00;31.10
3842;DHT22;1936;47.074;15.336;2024-02-21T10:47:36;22.80;28.10
3842;DHT22;1936;47.074;15.336;2024-02-21T10:49:42;22.10;28.60
3842;DHT22;1936;47.074;15.336;2024-02-21T10:51:52;21.00;28.50
3842;DHT22;1936;47.074;15.336;2024-02-21T10:54:06;19.90;30.80
3842;DHT22;1936;47.074;15.336;2024-02-21T10:56:22;19.60;33.40
3842;DHT22;1936;47.074;15.336;2024-02-21T10:58:31;19.70;33.30
3842;DHT22;1936;47.074;15.336;2024-02-21T11:00:35;19.10;33.30
3842;DHT22;1936;47.074;15.336;2024-02-21T11:02:40;19.30;36.00
3842;DHT22;1936;47.074;15.336;2024-02-21T11:04:45;18.40;31.60
3842;DHT22;1936;47.074;15.336;2024-02-21T11:06:50;17.90;32.40
3842;DHT22;1936;47.074;15.336;2024-02-21T11:09:02;18.20;34.70
3842;DHT22;1936;47.074;15.336;2024-02-21T11:11:06;18.00;33.00
3842;DHT22;1936;47.074;15.336;2024-02-21T11:13:17;18.30;33.80
3842;DHT22;1936;47.074;15.336;2024-02-21T11:15:25;17.60;34.40
3842;DHT22;1936;47.074;15.336;2024-02-21T11:17:29;17.80;38.40
3842;DHT22;1936;47.074;15.336;2024-02-21T11:19:33;18.40;40.70
3842;DHT22;1936;47.074;15.336;2024-02-21T11:21:37;19.20;45.70
3842;DHT22;1936;47.074;15.336;2024-02-21T11:25:44;19.60;35.30
3842;DHT22;1936;47.074;15.336;2024-02-21T11:27:47;19.40;31.00
3842;DHT22;1936;47.074;15.336;2024-02-21T11:29:56;18.50;52.50
3842;DHT22;1936;47.074;15.336;2024-02-21T11:32:02;18.00;46.60
3842;DHT22;1936;47.074;15.336;2024-02-21T11:34:09;17.80;37.00
3842;DHT22;1936;47.074;15.336;2024-02-21T11:36:24;17.60;36.00
3842;DHT22;1936;47.074;15.336;2024-02-21T11:38:27;17.60;54.80
3842;DHT22;1936;47.074;15.336;2024-02-21T11:40:31;18.10;46.70
3842;DHT22;1936;47.074;15.336;2024-02-21T11:44:39;19.20;31.00
3842;DHT22;1936;47.074;15.336;2024-02-21T11:46:48;18.80;41.00
3842;DHT22;1936;47.074;15.336;2024-02-21T11:48:52;18.20;35.60
3842;DHT22;1936;47.074;15.336;2024-02-21T11:50:56;16.80;36.10
3842;DHT22;1936;47.074;15.336;2024-02-21T11:53:00;17.10;38.10
3842;DHT22;1936;47.074;15.336;2024-02-21T11:55:04;18.00;37.60
3842;DHT22;1936;47.074;15.336;2024-02-21T11:57:12;18.80;36.20
3842;DHT22;1936;47.074;15.336;2024-02-21T11:59:16;18.60;34.10
3842;DHT22;1936;47.074;15.336;2024-02-21T12:01:19;18.10;36.80
3842;DHT22;1936;47.074;15.336;2024-02-21T12:03:24;18.20;38.60
3842;DHT22;1936;47.074;15.336;2024-02-21T12:05:28;17.30;35.60
3842;DHT22;1936;47.074;15.336;2024-02-21T12:07:32;17.10;36.20
3842;DHT22;1936;47.074;15.336;2024-02-21T12:09:35;16.40;36.50
3842;DHT22;1936;47.074;15.336;2024-02-21T12:11:39;15.80;43.30
3842;DHT22;1936;47.074;15.336;2024-02-21T12:13:42;15.40;44.20
3842;DHT22;1936;47.074;15.336;2024-02-21T12:15:47;15.50;51.80
3842;DHT22;1936;47.074;15.336;2024-02-21T12:17:51;15.20;40.10
3842;DHT22;1936;47.074;15.336;2024-02-21T12:19:57;15.70;41.30
3842;DHT22;1936;47.074;15.336;2024-02-21T12:22:00;15.90;40.00
3842;DHT22;1936;47.074;15.336;2024-02-21T12:24:12;15.40;38.80
3842;DHT22;1936;47.074;15.336;2024-02-21T12:26:15;15.60;41.30
3842;DHT22;1936;47.074;15.336;2024-02-21T12:28:19;15.70;40.40
3842;DHT22;1936;47.074;15.336;2024-02-21T12:30:24;16.10;40.70
3842;DHT22;1936;47.074;15.336;2024-02-21T12:32:27;16.50;38.20
3842;DHT22;1936;47.074;15.336;2024-02-21T12:34:31;16.80;38.70
3842;DHT22;1936;47.074;15.336;2024-02-21T12:36:55;17.70;47.90
3842;DHT22;1936;47.074;15.336;2024-02-21T12:41:04;18.10;37.20
3842;DHT22;1936;47.074;15.336;2024-02-21T12:43:08;16.90;38.10
3842;DHT22;1936;47.074;15.336;2024-02-21T12:45:12;16.60;40.00
3842;DHT22;1936;47.074;15.336;2024-02-21T12:47:15;18.00;44.90
3842;DHT22;1936;47.074;15.336;2024-02-21T12:49:21;18.90;38.40
3842;DHT22;1936;47.074;15.336;2024-02-21T12:51:26;19.50;37.00
3842;DHT22;1936;47.074;15.336;2024-02-21T12:53:31;20.60;32.20
3842;DHT22;1936;47.074;15.336;2024-02-21T12:55:36;20.40;31.00
3842;DHT22;1936;47.074;15.336;2024-02-21T12:57:40;20.50;33.90
3842;DHT22;1936;47.074;15.336;2024-02-21T12:59:44;20.70;34.10
3842;DHT22;1936;47.074;15.336;2024-02-21T13:01:47;21.50;31.30
3842;DHT22;1936;47.074;15.336;2024-02-21T13:03:50;21.40;30.10
3842;DHT22;1936;47.074;15.336;2024-02-21T13:05:53;20.80;31.20
3842;DHT22;1936;47.074;15.336;2024-02-21T13:07:57;21.80;32.50
3842;DHT22;1936;47.074;15.336;2024-02-21T13:10:02;21.00;33.20
3842;DHT22;1936;47.074;15.336;2024-02-21T13:12:07;19.60;30.30
3842;DHT22;1936;47.074;15.336;2024-02-21T13:14:11;19.10;32.30
3842;DHT22;1936;47.074;15.336;2024-02-21T13:16:15;18.60;33.80
3842;DHT22;1936;47.074;15.336;2024-02-21T13:18:18;19.20;36.10
3842;DHT22;1936;47.074;15.336;2024-02-21T13:20:22;19.90;32.50
3842;DHT22;1936;47.074;15.336;2024-02-21T13:22:25;20.00;32.40
3842;DHT22;1936;47.074;15.336;2024-02-21T13:24:30;19.60;32.70
3842;DHT22;1936;47.074;15.336;2024-02-21T13:26:35;19.00;34.80
3842;DHT22;1936;47.074;15.336;2024-02-21T13:28:39;18.50;37.80
3842;DHT22;1936;47.074;15.336;2024-02-21T13:30:42;18.20;34.30
3842;DHT22;1936;47.074;15.336;2024-02-21T13:32:45;17.30;35.80
3842;DHT22;1936;47.074;15.336;2024-02-21T13:34:49;17.10;39.10
3842;DHT22;1936;47.074;15.336;2024-02-21T13:36:55;16.90;38.40
3842;DHT22;1936;47.074;15.336;2024-02-21T13:38:58;16.80;38.50
3842;DHT22;1936;47.074;15.336;2024-02-21T13:41:02;16.10;39.30
3842;DHT22;1936;47.074;15.336;2024-02-21T13:43:07;15.60;41.60
3842;DHT22;1936;47.074;15.336;2024-02-21T13:47:16;15.50;41.40
3842;DHT22;1936;47.074;15.336;2024-02-21T13:49:19;15.30;42.20
3842;DHT22;1936;47.074;15.336;2024-02-21T13:51:23;15.40;41.70